sensor_id;sensor_type;location;lat;lon;timestamp;P1;durP1;ratioP1;P2;durP2;ratioP2
69207;SDS011;70114;47.690;8.898;2024-03-17T00:01:37;5.00;;;0.50;;
69207;SDS011;70114;47.690;8.898;2024-03-17T00:04:03;3.37;;;0.50;;
69207;SDS011;70114;47.690;8.898;2024-03-17T00:06:29;4.35;;;0.60;;
69207;SDS011;70114;47.690;8.898;2024-03-17T00:08:55;4.57;;;0.80;;
69207;SDS011;70114;47.690;8.898;2024-03-17T00:11:20;6.67;;;0.80;;
69207;SDS011;70114;47.690;8.898;2024-03-17T00:13:46;4.70;;;0.80;;
69207;SDS011;70114;47.690;8.898;2024-03-17T00:16:12;4.50;;;0.50;;
69207;SDS011;70114;47.690;8.898;2024-03-17T00:18:38;4.88;;;0.60;;
69207;SDS011;70114;47.690;8.898;2024-03-17T00:21:04;5.90;;;0.50;;
69207;SDS011;70114;47.690;8.898;2024-03-17T00:23:29;4.53;;;0.40;;
69207;SDS011;70114;47.690;8.898;2024-03-17T00:25:55;4.10;;;0.50;;
69207;SDS011;70114;47.690;8.898;2024-03-17T00:28:20;4.70;;;0.57;;
69207;SDS011;70114;47.690;8.898;2024-03-17T00:30:46;3.92;;;0.63;;
69207;SDS011;70114;47.690;8.898;2024-03-17T00:33:11;4.70;;;0.60;;
69207;SDS011;70114;47.690;8.898;2024-03-17T00:35:37;4.90;;;0.60;;
69207;SDS011;70114;47.690;8.898;2024-03-17T00:38:02;4.07;;;0.40;;
69207;SDS011;70114;47.690;8.898;2024-03-17T00:40:35;4.40;;;0.50;;
69207;SDS011;70114;47.690;8.898;2024-03-17T00:43:00;3.72;;;0.43;;
69207;SDS011;70114;47.690;8.898;2024-03-17T00:45:25;4.23;;;0.43;;
69207;SDS011;70114;47.690;8.898;2024-03-17T00:47:51;4.13;;;0.40;;
69207;SDS011;70114;47.690;8.898;2024-03-17T00:50:16;4.60;;;0.60;;
69207;SDS011;70114;47.690;8.898;2024-03-17T00:52:42;4.73;;;0.57;;
69207;SDS011;70114;47.690;8.898;2024-03-17T00:55:07;5.80;;;0.53;;
69207;SDS011;70114;47.690;8.898;2024-03-17T00:57:35;3.55;;;0.40;;
69207;SDS011;70114;47.690;8.898;2024-03-17T01:00:00;4.63;;;0.50;;
69207;SDS011;70114;47.690;8.898;2024-03-17T01:02:25;3.55;;;0.40;;
69207;SDS011;70114;47.690;8.898;2024-03-17T01:04:51;3.83;;;0.60;;
69207;SDS011;70114;47.690;8.898;2024-03-17T01:07:16;4.63;;;0.50;;
69207;SDS011;70114;47.690;8.898;2024-03-17T01:09:41;3.10;;;0.40;;
69207;SDS011;70114;47.690;8.898;2024-03-17T01:12:07;4.70;;;0.50;;
69207;SDS011;70114;47.690;8.898;2024-03-17T01:14:32;5.00;;;0.40;;
69207;SDS011;70114;47.690;8.898;2024-03-17T01:16:58;3.88;;;0.45;;
69207;SDS011;70114;47.690;8.898;2024-03-17T01:19:24;4.57;;;0.35;;
69207;SDS011;70114;47.690;8.898;2024-03-17T01:21:51;5.00;;;0.50;;
69207;SDS011;70114;47.690;8.898;2024-03-17T01:24:17;3.90;;;0.50;;
69207;SDS011;70114;47.690;8.898;2024-03-17T01:26:42;3.47;;;0.40;;
69207;SDS011;70114;47.690;8.898;2024-03-17T01:29:08;4.60;;;0.40;;
69207;SDS011;70114;47.690;8.898;2024-03-17T01:31:34;5.00;;;0.50;;
69207;SDS011;70114;47.690;8.898;2024-03-17T01:33:59;5.53;;;0.77;;
69207;SDS011;70114;47.690;8.898;2024-03-17T01:36:25;4.10;;;0.40;;
69207;SDS011;70114;47.690;8.898;2024-03-17T01:38:50;4.03;;;0.70;;
69207;SDS011;70114;47.690;8.898;2024-03-17T01:41:16;5.90;;;0.70;;
69207;SDS011;70114;47.690;8.898;2024-03-17T01:43:41;4.03;;;0.45;;
69207;SDS011;70114;47.690;8.898;2024-03-17T01:46:09;3.60;;;0.50;;
69207;SDS011;70114;47.690;8.898;2024-03-17T01:48:38;4.68;;;0.57;;
69207;SDS011;70114;47.690;8.898;2024-03-17T01:51:03;5.53;;;0.50;;
69207;SDS011;70114;47.690;8.898;2024-03-17T01:53:29;4.70;;;0.60;;
69207;SDS011;70114;47.690;8.898;2024-03-17T01:55:55;2.77;;;0.40;;
69207;SDS011;70114;47.690;8.898;2024-03-17T01:58:23;6.43;;;0.52;;
69207;SDS011;70114;47.690;8.898;2024-03-17T02:00:50;4.03;;;0.50;;
69207;SDS011;70114;47.690;8.898;2024-03-17T02:03:17;3.35;;;0.40;;
69207;SDS011;70114;47.690;8.898;2024-03-17T02:05:42;3.50;;;0.50;;
69207;SDS011;70114;47.690;8.898;2024-03-17T02:08:09;4.40;;;0.60;;
69207;SDS011;70114;47.690;8.898;2024-03-17T02:10:36;3.38;;;0.40;;
69207;SDS011;70114;47.690;8.898;2024-03-17T02:13:02;5.88;;;0.50;;
69207;SDS011;70114;47.690;8.898;2024-03-17T02:15:28;6.23;;;0.60;;
69207;SDS011;70114;47.690;8.898;2024-03-17T02:17:54;5.07;;;0.50;;
69207;SDS011;70114;47.690;8.898;2024-03-17T02:20:20;5.43;;;0.40;;
69207;SDS011;70114;47.690;8.898;2024-03-17T02:22:49;3.50;;;0.40;;
69207;SDS011;70114;47.690;8.898;2024-03-17T02:25:15;3.87;;;0.40;;
69207;SDS011;70114;47.690;8.898;2024-03-17T02:27:40;3.60;;;0.40;;
69207;SDS011;70114;47.690;8.898;2024-03-17T02:30:06;5.68;;;0.50;;
69207;SDS011;70114;47.690;8.898;2024-03-17T02:32:34;3.30;;;0.40;;
69207;SDS011;70114;47.690;8.898;2024-03-17T02:34:59;5.30;;;0.45;;
69207;SDS011;70114;47.690;8.898;2024-03-17T02:37:25;4.97;;;0.43;;
69207;SDS011;70114;47.690;8.898;2024-03-17T02:39:51;4.75;;;0.50;;
69207;SDS011;70114;47.690;8.898;2024-03-17T02:42:17;4.47;;;0.50;;
69207;SDS011;70114;47.690;8.898;2024-03-17T02:44:42;5.10;;;0.70;;
69207;SDS011;70114;47.690;8.898;2024-03-17T02:47:07;5.67;;;0.70;;
69207;SDS011;70114;47.690;8.898;2024-03-17T02:49:39;4.93;;;0.50;;
69207;SDS011;70114;47.690;8.898;2024-03-17T02:52:08;5.35;;;0.57;;
69207;SDS011;70114;47.690;8.898;2024-03-17T02:54:35;5.43;;;0.70;;
69207;SDS011;70114;47.690;8.898;2024-03-17T02:57:05;3.15;;;0.40;;
69207;SDS011;70114;47.690;8.898;2024-03-17T02:59:34;4.30;;;0.50;;
69207;SDS011;70114;47.690;8.898;2024-03-17T03:01:59;3.87;;;0.43;;
69207;SDS011;70114;47.690;8.898;2024-03-17T03:04:26;4.85;;;0.68;;
69207;SDS011;70114;47.690;8.898;2024-03-17T03:06:51;5.33;;;0.60;;
69207;SDS011;70114;47.690;8.898;2024-03-17T03:09:17;3.80;;;0.45;;
69207;SDS011;70114;47.690;8.898;2024-03-17T03:11:47;3.40;;;0.43;;
69207;SDS011;70114;47.690;8.898;2024-03-17T03:14:12;5.10;;;0.57;;
69207;SDS011;70114;47.690;8.898;2024-03-17T03:16:38;3.30;;;0.47;;
69207;SDS011;70114;47.690;8.898;2024-03-17T03:19:04;4.88;;;0.50;;
69207;SDS011;70114;47.690;8.898;2024-03-17T03:21:30;3.70;;;0.43;;
69207;SDS011;70114;47.690;8.898;2024-03-17T03:23:56;5.00;;;0.38;;
69207;SDS011;70114;47.690;8.898;2024-03-17T03:26:21;4.13;;;0.43;;
69207;SDS011;70114;47.690;8.898;2024-03-17T03:28:46;3.97;;;0.50;;
69207;SDS011;70114;47.690;8.898;2024-03-17T03:31:13;3.90;;;0.30;;
69207;SDS011;70114;47.690;8.898;2024-03-17T03:33:41;3.97;;;0.40;;
69207;SDS011;70114;47.690;8.898;2024-03-17T03:36:08;4.68;;;0.60;;
69207;SDS011;70114;47.690;8.898;2024-03-17T03:38:37;4.27;;;0.50;;
69207;SDS011;70114;47.690;8.898;2024-03-17T03:41:06;4.93;;;0.43;;
69207;SDS011;70114;47.690;8.898;2024-03-17T03:43:35;5.40;;;0.70;;
69207;SDS011;70114;47.690;8.898;2024-03-17T03:46:01;4.90;;;0.50;;
69207;SDS011;70114;47.690;8.898;2024-03-17T03:48:27;5.30;;;0.43;;
69207;SDS011;70114;47.690;8.898;2024-03-17T03:50:52;4.83;;;0.40;;
69207;SDS011;70114;47.690;8.898;2024-03-17T03:53:19;3.88;;;0.40;;
69207;SDS011;70114;47.690;8.898;2024-03-17T03:55:44;4.87;;;0.70;;
69207;SDS011;70114;47.690;8.898;2024-03-17T03:58:10;3.28;;;0.40;;
69207;SDS011;70114;47.690;8.898;2024-03-17T04:00:37;4.40;;;0.50;;
69207;SDS011;70114;47.690;8.898;2024-03-17T04:03:04;5.22;;;0.60;;
69207;SDS011;70114;47.690;8.898;2024-03-17T04:05:30;4.57;;;0.55;;
69207;SDS011;70114;47.690;8.898;2024-03-17T04:07:55;3.67;;;0.50;;
69207;SDS011;70114;47.690;8.898;2024-03-17T04:10:21;3.40;;;0.50;;
69207;SDS011;70114;47.690;8.898;2024-03-17T04:12:47;5.27;;;0.63;;
69207;SDS011;70114;47.690;8.898;2024-03-17T04:15:13;5.57;;;0.50;;
69207;SDS011;70114;47.690;8.898;2024-03-17T04:17:39;3.80;;;0.60;;
69207;SDS011;70114;47.690;8.898;2024-03-17T04:20:05;4.40;;;0.85;;
69207;SDS011;70114;47.690;8.898;2024-03-17T04:22:33;6.10;;;0.70;;
69207;SDS011;70114;47.690;8.898;2024-03-17T04:24:58;3.93;;;0.73;;
69207;SDS011;70114;47.690;8.898;2024-03-17T04:27:24;3.97;;;0.60;;
69207;SDS011;70114;47.690;8.898;2024-03-17T04:29:51;5.03;;;0.55;;
69207;SDS011;70114;47.690;8.898;2024-03-17T04:32:17;3.90;;;0.60;;
69207;SDS011;70114;47.690;8.898;2024-03-17T04:34:43;5.87;;;0.70;;
69207;SDS011;70114;47.690;8.898;2024-03-17T04:37:08;6.13;;;0.50;;
69207;SDS011;70114;47.690;8.898;2024-03-17T04:39:37;4.68;;;0.47;;
69207;SDS011;70114;47.690;8.898;2024-03-17T04:42:03;6.43;;;1.25;;
69207;SDS011;70114;47.690;8.898;2024-03-17T04:44:29;4.78;;;0.60;;
69207;SDS011;70114;47.690;8.898;2024-03-17T04:46:54;5.03;;;0.60;;
69207;SDS011;70114;47.690;8.898;2024-03-17T04:49:20;4.37;;;0.50;;
69207;SDS011;70114;47.690;8.898;2024-03-17T04:51:45;3.60;;;0.43;;
69207;SDS011;70114;47.690;8.898;2024-03-17T04:54:10;5.23;;;0.83;;
69207;SDS011;70114;47.690;8.898;2024-03-17T04:56:36;5.60;;;0.90;;
69207;SDS011;70114;47.690;8.898;2024-03-17T04:59:02;5.17;;;0.80;;
69207;SDS011;70114;47.690;8.898;2024-03-17T05:01:27;7.37;;;2.03;;
69207;SDS011;70114;47.690;8.898;2024-03-17T05:03:52;7.87;;;1.70;;
69207;SDS011;70114;47.690;8.898;2024-03-17T05:06:18;5.53;;;0.70;;
69207;SDS011;70114;47.690;8.898;2024-03-17T05:08:43;3.63;;;0.70;;
69207;SDS011;70114;47.690;8.898;2024-03-17T05:11:09;6.03;;;0.80;;
69207;SDS011;70114;47.690;8.898;2024-03-17T05:13:35;5.10;;;0.90;;
69207;SDS011;70114;47.690;8.898;2024-03-17T05:16:03;5.65;;;0.68;;
69207;SDS011;70114;47.690;8.898;2024-03-17T05:18:29;4.80;;;0.50;;
69207;SDS011;70114;47.690;8.898;2024-03-17T05:21:04;6.15;;;0.70;;
69207;SDS011;70114;47.690;8.898;2024-03-17T05:23:31;5.72;;;0.80;;
69207;SDS011;70114;47.690;8.898;2024-03-17T05:25:58;5.40;;;0.83;;
69207;SDS011;70114;47.690;8.898;2024-03-17T05:28:24;13.60;;;4.32;;
69207;SDS011;70114;47.690;8.898;2024-03-17T05:30:50;6.07;;;1.02;;
69207;SDS011;70114;47.690;8.898;2024-03-17T05:33:17;4.72;;;0.80;;
69207;SDS011;70114;47.690;8.898;2024-03-17T05:35:53;4.78;;;0.80;;
69207;SDS011;70114;47.690;8.898;2024-03-17T05:38:20;4.67;;;0.67;;
69207;SDS011;70114;47.690;8.898;2024-03-17T05:40:59;5.65;;;1.30;;
69207;SDS011;70114;47.690;8.898;2024-03-17T05:43:26;5.82;;;0.70;;
69207;SDS011;70114;47.690;8.898;2024-03-17T05:45:53;6.13;;;1.10;;
69207;SDS011;70114;47.690;8.898;2024-03-17T05:48:19;7.05;;;1.00;;
69207;SDS011;70114;47.690;8.898;2024-03-17T05:50:44;7.40;;;0.83;;
69207;SDS011;70114;47.690;8.898;2024-03-17T05:53:10;5.63;;;0.90;;
69207;SDS011;70114;47.690;8.898;2024-03-17T05:55:36;4.80;;;0.93;;
69207;SDS011;70114;47.690;8.898;2024-03-17T05:58:02;5.00;;;0.90;;
69207;SDS011;70114;47.690;8.898;2024-03-17T06:00:27;4.50;;;0.70;;
69207;SDS011;70114;47.690;8.898;2024-03-17T06:02:53;5.10;;;1.00;;
69207;SDS011;70114;47.690;8.898;2024-03-17T06:05:18;5.10;;;0.90;;
69207;SDS011;70114;47.690;8.898;2024-03-17T06:07:44;5.77;;;0.80;;
69207;SDS011;70114;47.690;8.898;2024-03-17T06:10:09;6.07;;;0.93;;
69207;SDS011;70114;47.690;8.898;2024-03-17T06:12:34;6.80;;;1.77;;
69207;SDS011;70114;47.690;8.898;2024-03-17T06:15:00;7.88;;;1.20;;
69207;SDS011;70114;47.690;8.898;2024-03-17T06:17:27;5.23;;;1.10;;
69207;SDS011;70114;47.690;8.898;2024-03-17T06:19:52;5.25;;;1.10;;
69207;SDS011;70114;47.690;8.898;2024-03-17T06:22:17;6.93;;;1.30;;
69207;SDS011;70114;47.690;8.898;2024-03-17T06:24:43;5.70;;;1.60;;
69207;SDS011;70114;47.690;8.898;2024-03-17T06:27:08;6.00;;;1.17;;
69207;SDS011;70114;47.690;8.898;2024-03-17T06:29:34;5.83;;;0.90;;
69207;SDS011;70114;47.690;8.898;2024-03-17T06:31:59;5.45;;;1.00;;
69207;SDS011;70114;47.690;8.898;2024-03-17T06:34:25;5.37;;;1.03;;
69207;SDS011;70114;47.690;8.898;2024-03-17T06:36:50;7.80;;;1.55;;
69207;SDS011;70114;47.690;8.898;2024-03-17T06:39:16;6.53;;;1.20;;
69207;SDS011;70114;47.690;8.898;2024-03-17T06:41:42;6.40;;;1.10;;
69207;SDS011;70114;47.690;8.898;2024-03-17T06:44:08;6.28;;;1.30;;
69207;SDS011;70114;47.690;8.898;2024-03-17T06:46:34;7.00;;;1.10;;
69207;SDS011;70114;47.690;8.898;2024-03-17T06:49:00;7.83;;;1.23;;
69207;SDS011;70114;47.690;8.898;2024-03-17T06:51:25;6.97;;;1.60;;
69207;SDS011;70114;47.690;8.898;2024-03-17T06:53:50;6.77;;;1.40;;
69207;SDS011;70114;47.690;8.898;2024-03-17T06:56:16;7.70;;;1.20;;
69207;SDS011;70114;47.690;8.898;2024-03-17T06:58:41;7.40;;;1.60;;
69207;SDS011;70114;47.690;8.898;2024-03-17T07:01:07;8.07;;;1.37;;
69207;SDS011;70114;47.690;8.898;2024-03-17T07:03:33;9.30;;;1.73;;
69207;SDS011;70114;47.690;8.898;2024-03-17T07:05:59;7.50;;;1.60;;
69207;SDS011;70114;47.690;8.898;2024-03-17T07:08:28;9.35;;;2.10;;
69207;SDS011;70114;47.690;8.898;2024-03-17T07:11:00;8.23;;;1.97;;
69207;SDS011;70114;47.690;8.898;2024-03-17T07:13:28;8.05;;;1.92;;
69207;SDS011;70114;47.690;8.898;2024-03-17T07:16:01;8.73;;;1.83;;
69207;SDS011;70114;47.690;8.898;2024-03-17T07:18:32;6.70;;;1.40;;
69207;SDS011;70114;47.690;8.898;2024-03-17T07:20:59;6.80;;;1.35;;
69207;SDS011;70114;47.690;8.898;2024-03-17T07:23:25;6.37;;;1.57;;
69207;SDS011;70114;47.690;8.898;2024-03-17T07:25:55;6.80;;;1.60;;
69207;SDS011;70114;47.690;8.898;2024-03-17T07:28:21;7.63;;;1.30;;
69207;SDS011;70114;47.690;8.898;2024-03-17T07:30:54;7.97;;;1.52;;
69207;SDS011;70114;47.690;8.898;2024-03-17T07:33:21;7.60;;;1.47;;
69207;SDS011;70114;47.690;8.898;2024-03-17T07:35:48;8.60;;;1.70;;
69207;SDS011;70114;47.690;8.898;2024-03-17T07:38:14;8.02;;;1.60;;
69207;SDS011;70114;47.690;8.898;2024-03-17T07:40:40;7.68;;;1.63;;
69207;SDS011;70114;47.690;8.898;2024-03-17T07:43:06;7.13;;;1.60;;
69207;SDS011;70114;47.690;8.898;2024-03-17T07:45:31;6.87;;;1.20;;
69207;SDS011;70114;47.690;8.898;2024-03-17T07:47:57;6.47;;;1.40;;
69207;SDS011;70114;47.690;8.898;2024-03-17T07:50:23;6.55;;;1.70;;
69207;SDS011;70114;47.690;8.898;2024-03-17T07:52:49;8.00;;;1.70;;
69207;SDS011;70114;47.690;8.898;2024-03-17T07:55:15;8.00;;;1.60;;
69207;SDS011;70114;47.690;8.898;2024-03-17T07:57:40;6.00;;;1.40;;
69207;SDS011;70114;47.690;8.898;2024-03-17T08:00:06;6.77;;;1.80;;
69207;SDS011;70114;47.690;8.898;2024-03-17T08:02:41;7.95;;;1.80;;
69207;SDS011;70114;47.690;8.898;2024-03-17T08:05:12;6.43;;;1.50;;
69207;SDS011;70114;47.690;8.898;2024-03-17T08:07:38;8.00;;;2.25;;
69207;SDS011;70114;47.690;8.898;2024-03-17T08:10:04;7.10;;;1.50;;
69207;SDS011;70114;47.690;8.898;2024-03-17T08:12:30;7.20;;;1.70;;
69207;SDS011;70114;47.690;8.898;2024-03-17T08:14:55;7.77;;;1.50;;
69207;SDS011;70114;47.690;8.898;2024-03-17T08:17:20;9.70;;;2.00;;
69207;SDS011;70114;47.690;8.898;2024-03-17T08:19:46;8.18;;;2.13;;
69207;SDS011;70114;47.690;8.898;2024-03-17T08:22:12;9.75;;;1.70;;
69207;SDS011;70114;47.690;8.898;2024-03-17T08:24:38;7.10;;;1.60;;
69207;SDS011;70114;47.690;8.898;2024-03-17T08:27:04;8.17;;;1.43;;
69207;SDS011;70114;47.690;8.898;2024-03-17T08:29:29;8.63;;;1.90;;
69207;SDS011;70114;47.690;8.898;2024-03-17T08:31:54;6.50;;;1.50;;
69207;SDS011;70114;47.690;8.898;2024-03-17T08:34:20;8.23;;;1.70;;
69207;SDS011;70114;47.690;8.898;2024-03-17T08:36:45;7.22;;;1.90;;
69207;SDS011;70114;47.690;8.898;2024-03-17T08:39:11;8.33;;;1.70;;
69207;SDS011;70114;47.690;8.898;2024-03-17T08:41:36;6.30;;;1.57;;
69207;SDS011;70114;47.690;8.898;2024-03-17T08:44:02;6.93;;;1.75;;
69207;SDS011;70114;47.690;8.898;2024-03-17T08:46:27;6.93;;;1.73;;
69207;SDS011;70114;47.690;8.898;2024-03-17T08:48:53;7.67;;;1.50;;
69207;SDS011;70114;47.690;8.898;2024-03-17T08:51:18;9.70;;;1.60;;
69207;SDS011;70114;47.690;8.898;2024-03-17T08:53:44;8.25;;;1.70;;
69207;SDS011;70114;47.690;8.898;2024-03-17T08:56:09;9.47;;;1.67;;
69207;SDS011;70114;47.690;8.898;2024-03-17T08:58:35;9.87;;;1.90;;
69207;SDS011;70114;47.690;8.898;2024-03-17T09:01:06;7.97;;;1.80;;
69207;SDS011;70114;47.690;8.898;2024-03-17T09:03:32;6.57;;;1.50;;
69207;SDS011;70114;47.690;8.898;2024-03-17T09:05:59;7.70;;;1.60;;
69207;SDS011;70114;47.690;8.898;2024-03-17T09:08:24;7.63;;;1.50;;
69207;SDS011;70114;47.690;8.898;2024-03-17T09:10:51;7.60;;;1.55;;
69207;SDS011;70114;47.690;8.898;2024-03-17T09:13:18;8.38;;;1.65;;
69207;SDS011;70114;47.690;8.898;2024-03-17T09:15:57;9.25;;;1.80;;
69207;SDS011;70114;47.690;8.898;2024-03-17T09:18:32;6.87;;;1.40;;
69207;SDS011;70114;47.690;8.898;2024-03-17T09:21:02;9.27;;;2.60;;
69207;SDS011;70114;47.690;8.898;2024-03-17T09:23:29;7.03;;;1.40;;
69207;SDS011;70114;47.690;8.898;2024-03-17T09:25:59;7.32;;;1.40;;
69207;SDS011;70114;47.690;8.898;2024-03-17T09:28:34;6.57;;;1.30;;
69207;SDS011;70114;47.690;8.898;2024-03-17T09:31:00;7.17;;;1.33;;
69207;SDS011;70114;47.690;8.898;2024-03-17T09:33:27;7.28;;;1.30;;
69207;SDS011;70114;47.690;8.898;2024-03-17T09:35:57;4.75;;;1.02;;
69207;SDS011;70114;47.690;8.898;2024-03-17T09:38:26;7.82;;;1.20;;
69207;SDS011;70114;47.690;8.898;2024-03-17T09:40:52;5.72;;;1.08;;
69207;SDS011;70114;47.690;8.898;2024-03-17T09:43:20;6.57;;;1.43;;
69207;SDS011;70114;47.690;8.898;2024-03-17T09:45:49;5.95;;;1.00;;
69207;SDS011;70114;47.690;8.898;2024-03-17T09:48:19;6.82;;;0.93;;
69207;SDS011;70114;47.690;8.898;2024-03-17T09:50:46;5.93;;;0.77;;
69207;SDS011;70114;47.690;8.898;2024-03-17T09:53:16;5.70;;;0.90;;
69207;SDS011;70114;47.690;8.898;2024-03-17T09:55:44;5.50;;;1.00;;
69207;SDS011;70114;47.690;8.898;2024-03-17T09:58:15;8.20;;;1.60;;
69207;SDS011;70114;47.690;8.898;2024-03-17T10:00:42;6.57;;;1.30;;
69207;SDS011;70114;47.690;8.898;2024-03-17T10:03:08;6.57;;;1.60;;
69207;SDS011;70114;47.690;8.898;2024-03-17T10:05:33;6.90;;;1.43;;
69207;SDS011;70114;47.690;8.898;2024-03-17T10:07:59;6.40;;;1.47;;
69207;SDS011;70114;47.690;8.898;2024-03-17T10:10:24;7.17;;;1.50;;
69207;SDS011;70114;47.690;8.898;2024-03-17T10:12:50;6.63;;;1.20;;
69207;SDS011;70114;47.690;8.898;2024-03-17T10:15:17;6.18;;;1.40;;
69207;SDS011;70114;47.690;8.898;2024-03-17T10:17:43;8.10;;;1.65;;
69207;SDS011;70114;47.690;8.898;2024-03-17T10:20:16;5.90;;;1.58;;
69207;SDS011;70114;47.690;8.898;2024-03-17T10:25:27;5.20;;;1.30;;
69207;SDS011;70114;47.690;8.898;2024-03-17T10:27:54;7.07;;;1.23;;
69207;SDS011;70114;47.690;8.898;2024-03-17T10:30:20;7.88;;;1.40;;
69207;SDS011;70114;47.690;8.898;2024-03-17T10:32:51;6.15;;;0.98;;
69207;SDS011;70114;47.690;8.898;2024-03-17T10:37:58;5.45;;;1.00;;
69207;SDS011;70114;47.690;8.898;2024-03-17T10:40:28;7.40;;;1.15;;
69207;SDS011;70114;47.690;8.898;2024-03-17T10:42:55;5.03;;;0.90;;
69207;SDS011;70114;47.690;8.898;2024-03-17T10:45:22;6.40;;;1.00;;
69207;SDS011;70114;47.690;8.898;2024-03-17T10:47:48;7.33;;;1.10;;
69207;SDS011;70114;47.690;8.898;2024-03-17T10:50:21;6.45;;;1.00;;
69207;SDS011;70114;47.690;8.898;2024-03-17T10:52:52;6.32;;;1.25;;
69207;SDS011;70114;47.690;8.898;2024-03-17T10:57:47;7.07;;;1.23;;
69207;SDS011;70114;47.690;8.898;2024-03-17T11:00:14;5.18;;;0.93;;
69207;SDS011;70114;47.690;8.898;2024-03-17T11:02:47;6.60;;;1.10;;
69207;SDS011;70114;47.690;8.898;2024-03-17T11:05:14;5.03;;;0.90;;
69207;SDS011;70114;47.690;8.898;2024-03-17T11:07:43;6.80;;;1.00;;
69207;SDS011;70114;47.690;8.898;2024-03-17T11:12:55;7.07;;;0.80;;
69207;SDS011;70114;47.690;8.898;2024-03-17T11:20:33;5.70;;;0.70;;
69207;SDS011;70114;47.690;8.898;2024-03-17T11:23:00;5.80;;;0.85;;
69207;SDS011;70114;47.690;8.898;2024-03-17T11:27:55;5.90;;;1.00;;
69207;SDS011;70114;47.690;8.898;2024-03-17T11:38:52;5.28;;;1.38;;
69207;SDS011;70114;47.690;8.898;2024-03-17T11:41:32;6.38;;;1.42;;
69207;SDS011;70114;47.690;8.898;2024-03-17T11:46:56;6.30;;;1.30;;
69207;SDS011;70114;47.690;8.898;2024-03-17T11:51:53;5.05;;;0.77;;
69207;SDS011;70114;47.690;8.898;2024-03-17T11:54:23;7.22;;;0.70;;
69207;SDS011;70114;47.690;8.898;2024-03-17T11:56:52;4.57;;;0.63;;
69207;SDS011;70114;47.690;8.898;2024-03-17T11:59:19;6.95;;;0.85;;
69207;SDS011;70114;47.690;8.898;2024-03-17T12:04:12;4.43;;;0.80;;
69207;SDS011;70114;47.690;8.898;2024-03-17T12:06:38;4.70;;;0.80;;
69207;SDS011;70114;47.690;8.898;2024-03-17T12:09:24;5.00;;;0.80;;
69207;SDS011;70114;47.690;8.898;2024-03-17T12:11:51;4.25;;;0.68;;
69207;SDS011;70114;47.690;8.898;2024-03-17T12:14:23;4.70;;;1.17;;
69207;SDS011;70114;47.690;8.898;2024-03-17T12:17:12;4.97;;;0.73;;
69207;SDS011;70114;47.690;8.898;2024-03-17T12:19:37;6.30;;;1.05;;
69207;SDS011;70114;47.690;8.898;2024-03-17T12:22:03;6.07;;;1.30;;
69207;SDS011;70114;47.690;8.898;2024-03-17T12:24:30;5.30;;;1.00;;
69207;SDS011;70114;47.690;8.898;2024-03-17T12:27:01;8.05;;;1.50;;
69207;SDS011;70114;47.690;8.898;2024-03-17T12:29:30;6.60;;;1.20;;
69207;SDS011;70114;47.690;8.898;2024-03-17T12:32:01;7.03;;;1.20;;
69207;SDS011;70114;47.690;8.898;2024-03-17T12:34:33;6.72;;;1.77;;
69207;SDS011;70114;47.690;8.898;2024-03-17T12:36:59;6.22;;;1.40;;
69207;SDS011;70114;47.690;8.898;2024-03-17T12:39:29;7.00;;;1.83;;
69207;SDS011;70114;47.690;8.898;2024-03-17T12:42:03;7.03;;;1.63;;
69207;SDS011;70114;47.690;8.898;2024-03-17T12:47:07;7.20;;;1.40;;
69207;SDS011;70114;47.690;8.898;2024-03-17T12:49:43;5.90;;;0.95;;
69207;SDS011;70114;47.690;8.898;2024-03-17T12:52:16;7.22;;;1.35;;
69207;SDS011;70114;47.690;8.898;2024-03-17T12:54:43;6.80;;;1.30;;
69207;SDS011;70114;47.690;8.898;2024-03-17T12:57:15;6.10;;;1.30;;
69207;SDS011;70114;47.690;8.898;2024-03-17T12:59:59;6.78;;;1.58;;
69207;SDS011;70114;47.690;8.898;2024-03-17T13:02:43;5.43;;;0.90;;
69207;SDS011;70114;47.690;8.898;2024-03-17T13:07:45;5.63;;;1.20;;
69207;SDS011;70114;47.690;8.898;2024-03-17T13:10:14;5.47;;;1.08;;
69207;SDS011;70114;47.690;8.898;2024-03-17T13:12:40;5.25;;;0.95;;
69207;SDS011;70114;47.690;8.898;2024-03-17T13:15:08;4.63;;;0.97;;
69207;SDS011;70114;47.690;8.898;2024-03-17T13:17:35;5.57;;;0.90;;
69207;SDS011;70114;47.690;8.898;2024-03-17T13:20:00;7.28;;;0.90;;
69207;SDS011;70114;47.690;8.898;2024-03-17T13:22:26;5.10;;;0.70;;
69207;SDS011;70114;47.690;8.898;2024-03-17T13:24:52;6.77;;;1.20;;
69207;SDS011;70114;47.690;8.898;2024-03-17T13:27:17;6.40;;;1.30;;
69207;SDS011;70114;47.690;8.898;2024-03-17T13:29:47;8.43;;;2.20;;
69207;SDS011;70114;47.690;8.898;2024-03-17T13:32:12;7.97;;;1.98;;
69207;SDS011;70114;47.690;8.898;2024-03-17T13:34:38;7.90;;;2.30;;
69207;SDS011;70114;47.690;8.898;2024-03-17T13:37:03;9.18;;;2.28;;
69207;SDS011;70114;47.690;8.898;2024-03-17T13:39:29;8.17;;;2.30;;
69207;SDS011;70114;47.690;8.898;2024-03-17T13:41:57;8.23;;;2.38;;
69207;SDS011;70114;47.690;8.898;2024-03-17T13:44:31;7.68;;;1.50;;
69207;SDS011;70114;47.690;8.898;2024-03-17T13:46:57;7.90;;;2.50;;
69207;SDS011;70114;47.690;8.898;2024-03-17T13:49:29;5.50;;;1.40;;
69207;SDS011;70114;47.690;8.898;2024-03-17T13:51:55;7.35;;;1.73;;
69207;SDS011;70114;47.690;8.898;2024-03-17T13:54:20;7.23;;;1.90;;
69207;SDS011;70114;47.690;8.898;2024-03-17T13:56:49;7.97;;;1.50;;
69207;SDS011;70114;47.690;8.898;2024-03-17T13:59:15;7.38;;;1.40;;
69207;SDS011;70114;47.690;8.898;2024-03-17T14:01:41;7.70;;;1.90;;
69207;SDS011;70114;47.690;8.898;2024-03-17T14:04:15;6.67;;;1.70;;
69207;SDS011;70114;47.690;8.898;2024-03-17T14:06:43;6.75;;;2.17;;
69207;SDS011;70114;47.690;8.898;2024-03-17T14:09:09;9.55;;;3.60;;
69207;SDS011;70114;47.690;8.898;2024-03-17T14:11:35;8.90;;;3.40;;
69207;SDS011;70114;47.690;8.898;2024-03-17T14:14:01;6.53;;;2.00;;
69207;SDS011;70114;47.690;8.898;2024-03-17T14:16:29;7.38;;;1.70;;
69207;SDS011;70114;47.690;8.898;2024-03-17T14:18:56;6.10;;;1.60;;
69207;SDS011;70114;47.690;8.898;2024-03-17T14:21:22;8.27;;;2.47;;
69207;SDS011;70114;47.690;8.898;2024-03-17T14:23:47;8.83;;;2.70;;
69207;SDS011;70114;47.690;8.898;2024-03-17T14:26:13;7.63;;;2.60;;
69207;SDS011;70114;47.690;8.898;2024-03-17T14:28:38;6.40;;;1.55;;
69207;SDS011;70114;47.690;8.898;2024-03-17T14:31:03;8.63;;;2.00;;
69207;SDS011;70114;47.690;8.898;2024-03-17T14:33:29;21.83;;;7.37;;
69207;SDS011;70114;47.690;8.898;2024-03-17T14:35:55;33.10;;;10.18;;
69207;SDS011;70114;47.690;8.898;2024-03-17T14:38:24;8.57;;;3.50;;
69207;SDS011;70114;47.690;8.898;2024-03-17T14:40:53;8.07;;;1.90;;
69207;SDS011;70114;47.690;8.898;2024-03-17T14:43:21;6.43;;;1.80;;
69207;SDS011;70114;47.690;8.898;2024-03-17T14:45:46;6.80;;;1.83;;
69207;SDS011;70114;47.690;8.898;2024-03-17T14:48:12;7.10;;;1.47;;
69207;SDS011;70114;47.690;8.898;2024-03-17T14:50:40;7.95;;;2.08;;
69207;SDS011;70114;47.690;8.898;2024-03-17T14:53:06;7.43;;;1.70;;
69207;SDS011;70114;47.690;8.898;2024-03-17T14:55:31;7.03;;;1.80;;
69207;SDS011;70114;47.690;8.898;2024-03-17T14:57:56;7.20;;;1.90;;
69207;SDS011;70114;47.690;8.898;2024-03-17T15:00:22;5.53;;;1.70;;
69207;SDS011;70114;47.690;8.898;2024-03-17T15:02:50;7.38;;;2.30;;
69207;SDS011;70114;47.690;8.898;2024-03-17T15:05:16;5.13;;;1.23;;
69207;SDS011;70114;47.690;8.898;2024-03-17T15:07:47;7.43;;;1.60;;
69207;SDS011;70114;47.690;8.898;2024-03-17T15:10:13;7.28;;;1.00;;
69207;SDS011;70114;47.690;8.898;2024-03-17T15:12:40;6.45;;;1.10;;
69207;SDS011;70114;47.690;8.898;2024-03-17T15:15:06;7.97;;;2.20;;
69207;SDS011;70114;47.690;8.898;2024-03-17T15:17:35;5.47;;;1.20;;
69207;SDS011;70114;47.690;8.898;2024-03-17T15:20:01;7.40;;;1.40;;
69207;SDS011;70114;47.690;8.898;2024-03-17T15:22:26;5.80;;;1.23;;
69207;SDS011;70114;47.690;8.898;2024-03-17T15:24:52;9.13;;;1.90;;
69207;SDS011;70114;47.690;8.898;2024-03-17T15:27:18;11.85;;;2.25;;